Terminal Aerodrome Forecast
Issued by NWS Salt Lake City, UT

Home | Current Version | Previous Version | Text Only | Print | Product List | Glossary On
Versions: 1 2 3 4 5 6 7 8 9 10 11 12 13 14 15 16 17 18 19 20 21 22 23 24 25 26 27 28 29 30 31 32 33 34 35 36
000
FTUS45 KSLC 261140
TAFSLC
TAF
KSLC 261140Z 2612/2718 14010KT P6SM FEW070
     FM262100 17010KT P6SM SCT070 BKN140
     FM270600 18013KT P6SM VCSH SCT030 BKN060
     FM271200 29007KT 1SM -SN SCT009 BKN015=

USA.gov is the U.S. government's official web portal to all federal, state and local government web resources and services.